sensor_id;sensor_type;location;lat;lon;timestamp;temperature;humidity
12726;DHT22;6427;49.754;6.106;2023-02-28T00:01:12;0.10;86.10
12726;DHT22;6427;49.754;6.106;2023-02-28T00:03:39;0.00;86.30
12726;DHT22;6427;49.754;6.106;2023-02-28T00:06:06;0.00;86.80
12726;DHT22;6427;49.754;6.106;2023-02-28T00:08:34;-0.10;87.00
12726;DHT22;6427;49.754;6.106;2023-02-28T00:11:02;-0.20;87.30
12726;DHT22;6427;49.754;6.106;2023-02-28T00:13:29;-0.20;87.40
12726;DHT22;6427;49.754;6.106;2023-02-28T00:16:01;0.00;87.90
12726;DHT22;6427;49.754;6.106;2023-02-28T00:18:27;0.00;87.70
12726;DHT22;6427;49.754;6.106;2023-02-28T00:20:55;-0.10;87.70
12726;DHT22;6427;49.754;6.106;2023-02-28T00:23:23;0.00;87.40
12726;DHT22;6427;49.754;6.106;2023-02-28T00:25:51;0.00;87.30
12726;DHT22;6427;49.754;6.106;2023-02-28T00:28:18;-0.10;87.40
12726;DHT22;6427;49.754;6.106;2023-02-28T00:30:46;-0.20;88.00
12726;DHT22;6427;49.754;6.106;2023-02-28T00:33:13;-0.30;89.20
12726;DHT22;6427;49.754;6.106;2023-02-28T00:35:41;-0.30;89.00
12726;DHT22;6427;49.754;6.106;2023-02-28T00:38:09;-0.40;89.90
12726;DHT22;6427;49.754;6.106;2023-02-28T00:40:37;-0.40;89.90
12726;DHT22;6427;49.754;6.106;2023-02-28T00:43:04;-0.40;90.20
12726;DHT22;6427;49.754;6.106;2023-02-28T00:45:32;-0.50;90.30
12726;DHT22;6427;49.754;6.106;2023-02-28T00:48:00;-0.50;90.40
12726;DHT22;6427;49.754;6.106;2023-02-28T00:50:27;-0.50;90.50
12726;DHT22;6427;49.754;6.106;2023-02-28T00:52:55;-0.50;90.60
12726;DHT22;6427;49.754;6.106;2023-02-28T00:55:23;-0.60;90.70
12726;DHT22;6427;49.754;6.106;2023-02-28T00:57:51;-0.60;91.30
12726;DHT22;6427;49.754;6.106;2023-02-28T01:00:18;-0.70;91.20
12726;DHT22;6427;49.754;6.106;2023-02-28T01:02:46;-0.60;91.60
12726;DHT22;6427;49.754;6.106;2023-02-28T01:05:13;-0.60;91.70
12726;DHT22;6427;49.754;6.106;2023-02-28T01:07:41;-0.60;92.00
12726;DHT22;6427;49.754;6.106;2023-02-28T01:10:09;-0.70;92.20
12726;DHT22;6427;49.754;6.106;2023-02-28T01:12:36;-0.70;92.50
12726;DHT22;6427;49.754;6.106;2023-02-28T01:15:04;-0.50;92.80
12726;DHT22;6427;49.754;6.106;2023-02-28T01:17:31;-0.50;92.30
12726;DHT22;6427;49.754;6.106;2023-02-28T01:20:00;-0.70;92.90
12726;DHT22;6427;49.754;6.106;2023-02-28T01:22:27;-0.70;92.90
12726;DHT22;6427;49.754;6.106;2023-02-28T01:24:55;-0.50;93.60
12726;DHT22;6427;49.754;6.106;2023-02-28T01:27:23;-0.60;93.70
12726;DHT22;6427;49.754;6.106;2023-02-28T01:29:51;-0.70;93.60
12726;DHT22;6427;49.754;6.106;2023-02-28T01:32:18;-0.70;93.80
12726;DHT22;6427;49.754;6.106;2023-02-28T01:34:47;-0.80;94.40
12726;DHT22;6427;49.754;6.106;2023-02-28T01:37:14;-0.80;94.40
12726;DHT22;6427;49.754;6.106;2023-02-28T01:39:42;-0.80;95.10
12726;DHT22;6427;49.754;6.106;2023-02-28T01:42:09;-0.90;94.90
12726;DHT22;6427;49.754;6.106;2023-02-28T01:45:01;-0.90;95.40
12726;DHT22;6427;49.754;6.106;2023-02-28T01:47:34;-0.90;95.40
12726;DHT22;6427;49.754;6.106;2023-02-28T01:50:00;-0.90;96.00
12726;DHT22;6427;49.754;6.106;2023-02-28T01:52:28;-0.90;96.60
12726;DHT22;6427;49.754;6.106;2023-02-28T01:54:56;-0.90;97.00
12726;DHT22;6427;49.754;6.106;2023-02-28T01:57:24;-0.90;97.40
12726;DHT22;6427;49.754;6.106;2023-02-28T01:59:56;-0.80;97.60
12726;DHT22;6427;49.754;6.106;2023-02-28T02:02:22;-0.80;97.60
12726;DHT22;6427;49.754;6.106;2023-02-28T02:04:58;-0.80;97.90
12726;DHT22;6427;49.754;6.106;2023-02-28T02:07:26;-0.80;98.10
12726;DHT22;6427;49.754;6.106;2023-02-28T02:10:14;-0.50;98.80
12726;DHT22;6427;49.754;6.106;2023-02-28T02:21:06;-0.60;98.30
12726;DHT22;6427;49.754;6.106;2023-02-28T02:23:58;-0.60;98.40
12726;DHT22;6427;49.754;6.106;2023-02-28T02:26:43;-0.70;98.70
12726;DHT22;6427;49.754;6.106;2023-02-28T02:28:44;-0.70;98.60
12726;DHT22;6427;49.754;6.106;2023-02-28T02:31:26;-0.70;99.10
12726;DHT22;6427;49.754;6.106;2023-02-28T02:34:02;-0.70;98.70
12726;DHT22;6427;49.754;6.106;2023-02-28T02:39:06;-0.80;99.00
12726;DHT22;6427;49.754;6.106;2023-02-28T02:41:52;-0.80;99.20
12726;DHT22;6427;49.754;6.106;2023-02-28T02:46:49;-0.70;99.80
12726;DHT22;6427;49.754;6.106;2023-02-28T02:49:20;-0.70;99.60
12726;DHT22;6427;49.754;6.106;2023-02-28T02:51:43;-0.70;99.70
12726;DHT22;6427;49.754;6.106;2023-02-28T02:54:12;-0.70;99.80
12726;DHT22;6427;49.754;6.106;2023-02-28T02:56:39;-0.70;99.80
12726;DHT22;6427;49.754;6.106;2023-02-28T02:59:08;-0.70;99.90
12726;DHT22;6427;49.754;6.106;2023-02-28T03:01:34;-0.70;99.90
12726;DHT22;6427;49.754;6.106;2023-02-28T03:04:16;-0.70;99.90
12726;DHT22;6427;49.754;6.106;2023-02-28T03:06:32;-0.70;99.90
12726;DHT22;6427;49.754;6.106;2023-02-28T03:09:01;-0.70;99.90
12726;DHT22;6427;49.754;6.106;2023-02-28T03:11:28;-0.80;99.90
12726;DHT22;6427;49.754;6.106;2023-02-28T03:14:18;-0.70;99.90
12726;DHT22;6427;49.754;6.106;2023-02-28T03:22:29;-0.50;99.90
12726;DHT22;6427;49.754;6.106;2023-02-28T03:25:01;-0.60;99.90
12726;DHT22;6427;49.754;6.106;2023-02-28T03:27:27;-0.70;99.90
12726;DHT22;6427;49.754;6.106;2023-02-28T03:35:16;-0.80;99.90
12726;DHT22;6427;49.754;6.106;2023-02-28T03:37:42;-0.80;99.90
12726;DHT22;6427;49.754;6.106;2023-02-28T03:40:22;-0.80;99.90
12726;DHT22;6427;49.754;6.106;2023-02-28T03:42:49;-0.80;99.90
12726;DHT22;6427;49.754;6.106;2023-02-28T03:45:17;-0.90;99.90
12726;DHT22;6427;49.754;6.106;2023-02-28T03:47:49;-0.70;99.90
12726;DHT22;6427;49.754;6.106;2023-02-28T03:50:18;-0.40;99.90
12726;DHT22;6427;49.754;6.106;2023-02-28T03:52:56;-0.50;99.90
12726;DHT22;6427;49.754;6.106;2023-02-28T03:55:18;-0.50;99.90
12726;DHT22;6427;49.754;6.106;2023-02-28T04:00:38;-0.60;99.90
12726;DHT22;6427;49.754;6.106;2023-02-28T04:03:05;-0.70;99.90
12726;DHT22;6427;49.754;6.106;2023-02-28T04:05:33;-0.70;99.90
12726;DHT22;6427;49.754;6.106;2023-02-28T04:08:07;-0.70;99.90
12726;DHT22;6427;49.754;6.106;2023-02-28T04:10:31;-0.80;99.90
12726;DHT22;6427;49.754;6.106;2023-02-28T04:12:58;-0.80;99.90
12726;DHT22;6427;49.754;6.106;2023-02-28T04:15:26;-0.80;99.90
12726;DHT22;6427;49.754;6.106;2023-02-28T04:17:53;-0.80;99.90
12726;DHT22;6427;49.754;6.106;2023-02-28T04:20:21;-0.80;99.90
12726;DHT22;6427;49.754;6.106;2023-02-28T04:22:48;-0.90;99.90
12726;DHT22;6427;49.754;6.106;2023-02-28T04:25:16;-0.90;99.90
12726;DHT22;6427;49.754;6.106;2023-02-28T04:27:44;-0.90;99.90
12726;DHT22;6427;49.754;6.106;2023-02-28T04:30:11;-0.80;99.90
12726;DHT22;6427;49.754;6.106;2023-02-28T04:32:39;-0.70;99.90
12726;DHT22;6427;49.754;6.106;2023-02-28T04:35:06;-0.80;99.90
12726;DHT22;6427;49.754;6.106;2023-02-28T04:37:34;-0.60;99.90
12726;DHT22;6427;49.754;6.106;2023-02-28T04:40:02;-0.40;99.90
12726;DHT22;6427;49.754;6.106;2023-02-28T04:42:29;-0.20;99.90
12726;DHT22;6427;49.754;6.106;2023-02-28T04:44:57;-0.30;99.90
12726;DHT22;6427;49.754;6.106;2023-02-28T04:47:25;-0.60;99.90
12726;DHT22;6427;49.754;6.106;2023-02-28T04:49:52;-0.60;99.90
12726;DHT22;6427;49.754;6.106;2023-02-28T04:52:20;-0.60;99.90
12726;DHT22;6427;49.754;6.106;2023-02-28T04:54:48;-0.70;99.90
12726;DHT22;6427;49.754;6.106;2023-02-28T04:57:16;-0.80;99.90
12726;DHT22;6427;49.754;6.106;2023-02-28T04:59:43;-0.90;99.90
12726;DHT22;6427;49.754;6.106;2023-02-28T05:02:12;-0.90;99.90
12726;DHT22;6427;49.754;6.106;2023-02-28T05:04:39;-0.90;99.90
12726;DHT22;6427;49.754;6.106;2023-02-28T05:07:07;-0.90;99.90
12726;DHT22;6427;49.754;6.106;2023-02-28T05:09:35;-1.00;99.90
12726;DHT22;6427;49.754;6.106;2023-02-28T05:12:03;-1.00;99.90
12726;DHT22;6427;49.754;6.106;2023-02-28T05:14:31;-1.00;99.90
12726;DHT22;6427;49.754;6.106;2023-02-28T05:16:58;-1.00;99.90
12726;DHT22;6427;49.754;6.106;2023-02-28T05:19:26;-1.00;99.90
12726;DHT22;6427;49.754;6.106;2023-02-28T05:21:54;-0.80;99.90
12726;DHT22;6427;49.754;6.106;2023-02-28T05:24:21;-0.80;99.90
12726;DHT22;6427;49.754;6.106;2023-02-28T05:26:50;-0.70;99.90
12726;DHT22;6427;49.754;6.106;2023-02-28T05:29:17;-0.70;99.90
12726;DHT22;6427;49.754;6.106;2023-02-28T05:31:44;-0.80;99.90
12726;DHT22;6427;49.754;6.106;2023-02-28T05:34:13;-0.90;99.90
12726;DHT22;6427;49.754;6.106;2023-02-28T05:36:40;-0.90;99.90
12726;DHT22;6427;49.754;6.106;2023-02-28T05:39:08;-1.00;99.90
12726;DHT22;6427;49.754;6.106;2023-02-28T05:41:35;-1.00;99.90
12726;DHT22;6427;49.754;6.106;2023-02-28T05:44:03;-1.10;99.90
12726;DHT22;6427;49.754;6.106;2023-02-28T05:46:30;-1.10;99.90
12726;DHT22;6427;49.754;6.106;2023-02-28T05:48:58;-1.10;99.90
12726;DHT22;6427;49.754;6.106;2023-02-28T05:51:26;-1.20;99.90
12726;DHT22;6427;49.754;6.106;2023-02-28T05:53:53;-1.10;99.90
12726;DHT22;6427;49.754;6.106;2023-02-28T05:56:21;-1.10;99.90
12726;DHT22;6427;49.754;6.106;2023-02-28T05:58:49;-1.20;99.90
12726;DHT22;6427;49.754;6.106;2023-02-28T06:01:24;-1.20;99.90
12726;DHT22;6427;49.754;6.106;2023-02-28T06:03:49;-1.20;99.90
12726;DHT22;6427;49.754;6.106;2023-02-28T06:06:18;-1.20;99.90
12726;DHT22;6427;49.754;6.106;2023-02-28T06:08:45;-1.20;99.90
12726;DHT22;6427;49.754;6.106;2023-02-28T06:11:13;-1.20;99.90
12726;DHT22;6427;49.754;6.106;2023-02-28T06:13:40;-1.30;99.90
12726;DHT22;6427;49.754;6.106;2023-02-28T06:16:10;-1.30;99.90
12726;DHT22;6427;49.754;6.106;2023-02-28T06:18:37;-1.10;99.90
12726;DHT22;6427;49.754;6.106;2023-02-28T06:21:05;-1.10;99.90
12726;DHT22;6427;49.754;6.106;2023-02-28T06:23:33;-1.20;99.90
12726;DHT22;6427;49.754;6.106;2023-02-28T06:26:01;-1.20;99.90
12726;DHT22;6427;49.754;6.106;2023-02-28T06:28:28;-1.30;99.90
12726;DHT22;6427;49.754;6.106;2023-02-28T06:30:56;-1.30;99.90
12726;DHT22;6427;49.754;6.106;2023-02-28T06:33:23;-1.10;99.90
12726;DHT22;6427;49.754;6.106;2023-02-28T06:35:51;-1.10;99.90
12726;DHT22;6427;49.754;6.106;2023-02-28T06:38:20;-1.20;99.90
12726;DHT22;6427;49.754;6.106;2023-02-28T06:40:57;-1.30;99.90
12726;DHT22;6427;49.754;6.106;2023-02-28T06:43:15;-1.30;99.90
12726;DHT22;6427;49.754;6.106;2023-02-28T06:45:43;-1.30;99.90
12726;DHT22;6427;49.754;6.106;2023-02-28T06:48:10;-1.40;99.90
12726;DHT22;6427;49.754;6.106;2023-02-28T06:50:38;-1.30;99.90
12726;DHT22;6427;49.754;6.106;2023-02-28T06:53:06;-1.30;99.90
12726;DHT22;6427;49.754;6.106;2023-02-28T06:55:33;-1.30;99.90
12726;DHT22;6427;49.754;6.106;2023-02-28T06:58:01;-1.30;99.90
12726;DHT22;6427;49.754;6.106;2023-02-28T07:00:28;-1.30;99.90
12726;DHT22;6427;49.754;6.106;2023-02-28T07:02:56;-1.30;99.90
12726;DHT22;6427;49.754;6.106;2023-02-28T07:05:23;-1.30;99.90
12726;DHT22;6427;49.754;6.106;2023-02-28T07:07:52;-1.30;99.90
12726;DHT22;6427;49.754;6.106;2023-02-28T07:10:19;-1.30;99.90
12726;DHT22;6427;49.754;6.106;2023-02-28T07:12:47;-1.30;99.90
12726;DHT22;6427;49.754;6.106;2023-02-28T07:15:14;-1.20;99.90
12726;DHT22;6427;49.754;6.106;2023-02-28T07:17:42;-1.20;99.90
12726;DHT22;6427;49.754;6.106;2023-02-28T07:20:10;-1.20;99.90
12726;DHT22;6427;49.754;6.106;2023-02-28T07:22:38;-1.10;99.90
12726;DHT22;6427;49.754;6.106;2023-02-28T07:25:05;-1.10;99.90
12726;DHT22;6427;49.754;6.106;2023-02-28T07:27:33;-1.00;99.90
12726;DHT22;6427;49.754;6.106;2023-02-28T07:30:01;-0.90;99.90
12726;DHT22;6427;49.754;6.106;2023-02-28T07:32:29;-0.90;99.90
12726;DHT22;6427;49.754;6.106;2023-02-28T07:34:56;-0.80;99.90
12726;DHT22;6427;49.754;6.106;2023-02-28T07:37:24;-0.80;99.90
12726;DHT22;6427;49.754;6.106;2023-02-28T07:39:52;-0.70;99.90
12726;DHT22;6427;49.754;6.106;2023-02-28T07:42:19;-0.70;99.90
12726;DHT22;6427;49.754;6.106;2023-02-28T07:44:47;-0.60;99.90
12726;DHT22;6427;49.754;6.106;2023-02-28T07:47:15;-0.50;99.90
12726;DHT22;6427;49.754;6.106;2023-02-28T07:49:43;-0.50;99.90
12726;DHT22;6427;49.754;6.106;2023-02-28T07:52:10;-0.40;99.90
12726;DHT22;6427;49.754;6.106;2023-02-28T07:54:38;-0.40;99.90
12726;DHT22;6427;49.754;6.106;2023-02-28T07:57:06;-0.20;99.90
12726;DHT22;6427;49.754;6.106;2023-02-28T07:59:34;-0.20;99.90
12726;DHT22;6427;49.754;6.106;2023-02-28T08:02:01;-0.20;99.90
12726;DHT22;6427;49.754;6.106;2023-02-28T08:04:31;-0.10;99.90
12726;DHT22;6427;49.754;6.106;2023-02-28T08:06:57;0.00;99.90
12726;DHT22;6427;49.754;6.106;2023-02-28T08:09:25;0.10;99.90
12726;DHT22;6427;49.754;6.106;2023-02-28T08:11:52;0.10;99.90
12726;DHT22;6427;49.754;6.106;2023-02-28T08:14:20;0.20;99.90
12726;DHT22;6427;49.754;6.106;2023-02-28T08:16:47;0.50;99.90
12726;DHT22;6427;49.754;6.106;2023-02-28T08:19:15;0.50;99.90
12726;DHT22;6427;49.754;6.106;2023-02-28T08:21:43;0.50;99.90
12726;DHT22;6427;49.754;6.106;2023-02-28T08:24:10;0.60;99.90
12726;DHT22;6427;49.754;6.106;2023-02-28T08:26:38;0.60;99.90
12726;DHT22;6427;49.754;6.106;2023-02-28T08:29:06;0.70;99.90
12726;DHT22;6427;49.754;6.106;2023-02-28T08:31:33;0.70;99.90
12726;DHT22;6427;49.754;6.106;2023-02-28T08:34:11;0.80;99.90
12726;DHT22;6427;49.754;6.106;2023-02-28T08:36:35;0.90;99.90
12726;DHT22;6427;49.754;6.106;2023-02-28T08:39:02;1.00;99.90
12726;DHT22;6427;49.754;6.106;2023-02-28T08:41:30;1.10;99.90
12726;DHT22;6427;49.754;6.106;2023-02-28T08:43:57;1.10;99.90
12726;DHT22;6427;49.754;6.106;2023-02-28T08:46:25;1.20;99.90
12726;DHT22;6427;49.754;6.106;2023-02-28T08:48:53;1.30;99.90
12726;DHT22;6427;49.754;6.106;2023-02-28T08:51:21;1.40;99.90
12726;DHT22;6427;49.754;6.106;2023-02-28T08:53:48;1.40;99.90
12726;DHT22;6427;49.754;6.106;2023-02-28T08:56:16;1.50;99.90
12726;DHT22;6427;49.754;6.106;2023-02-28T08:58:48;1.70;99.90
12726;DHT22;6427;49.754;6.106;2023-02-28T09:01:18;1.70;99.90
12726;DHT22;6427;49.754;6.106;2023-02-28T09:03:45;1.80;99.90
12726;DHT22;6427;49.754;6.106;2023-02-28T09:06:13;1.80;99.80
12726;DHT22;6427;49.754;6.106;2023-02-28T09:08:40;1.80;99.80
12726;DHT22;6427;49.754;6.106;2023-02-28T09:11:08;1.90;99.60
12726;DHT22;6427;49.754;6.106;2023-02-28T09:13:35;2.00;99.50
12726;DHT22;6427;49.754;6.106;2023-02-28T09:16:06;2.10;98.10
12726;DHT22;6427;49.754;6.106;2023-02-28T09:18:33;2.00;98.10
12726;DHT22;6427;49.754;6.106;2023-02-28T09:20:59;2.10;97.90
12726;DHT22;6427;49.754;6.106;2023-02-28T09:23:26;2.20;97.40
12726;DHT22;6427;49.754;6.106;2023-02-28T09:25:54;2.20;96.90
12726;DHT22;6427;49.754;6.106;2023-02-28T09:28:22;2.30;96.30
12726;DHT22;6427;49.754;6.106;2023-02-28T09:30:51;2.30;95.90
12726;DHT22;6427;49.754;6.106;2023-02-28T09:33:17;2.40;95.60
12726;DHT22;6427;49.754;6.106;2023-02-28T09:35:45;2.60;94.90
12726;DHT22;6427;49.754;6.106;2023-02-28T09:38:13;2.60;94.90
12726;DHT22;6427;49.754;6.106;2023-02-28T09:40:51;2.70;94.30
12726;DHT22;6427;49.754;6.106;2023-02-28T09:43:18;2.70;94.10
12726;DHT22;6427;49.754;6.106;2023-02-28T09:45:52;2.80;93.60
12726;DHT22;6427;49.754;6.106;2023-02-28T09:48:22;2.80;93.40
12726;DHT22;6427;49.754;6.106;2023-02-28T09:50:52;2.90;92.70
12726;DHT22;6427;49.754;6.106;2023-02-28T09:53:26;2.90;92.70
12726;DHT22;6427;49.754;6.106;2023-02-28T09:55:51;2.90;91.60
12726;DHT22;6427;49.754;6.106;2023-02-28T10:04:50;2.90;85.90
12726;DHT22;6427;49.754;6.106;2023-02-28T10:06:40;2.90;85.90
12726;DHT22;6427;49.754;6.106;2023-02-28T10:09:26;3.00;85.30
12726;DHT22;6427;49.754;6.106;2023-02-28T10:11:53;3.00;83.80
12726;DHT22;6427;49.754;6.106;2023-02-28T10:14:24;3.30;83.20
12726;DHT22;6427;49.754;6.106;2023-02-28T10:17:01;3.40;80.10
12726;DHT22;6427;49.754;6.106;2023-02-28T10:22:26;3.40;79.00
12726;DHT22;6427;49.754;6.106;2023-02-28T10:24:53;3.40;78.30
12726;DHT22;6427;49.754;6.106;2023-02-28T10:27:22;3.50;76.80
12726;DHT22;6427;49.754;6.106;2023-02-28T10:29:56;3.50;75.70
12726;DHT22;6427;49.754;6.106;2023-02-28T10:32:26;3.50;75.70
12726;DHT22;6427;49.754;6.106;2023-02-28T10:34:57;3.50;75.70
12726;DHT22;6427;49.754;6.106;2023-02-28T10:37:23;3.50;75.80
12726;DHT22;6427;49.754;6.106;2023-02-28T10:39:50;3.70;76.30
12726;DHT22;6427;49.754;6.106;2023-02-28T10:42:27;4.00;74.80
12726;DHT22;6427;49.754;6.106;2023-02-28T10:45:11;4.60;72.20
12726;DHT22;6427;49.754;6.106;2023-02-28T10:47:41;4.50;72.10
12726;DHT22;6427;49.754;6.106;2023-02-28T10:50:05;4.80;71.70
12726;DHT22;6427;49.754;6.106;2023-02-28T10:52:41;4.70;71.40
12726;DHT22;6427;49.754;6.106;2023-02-28T10:55:22;4.60;71.40
12726;DHT22;6427;49.754;6.106;2023-02-28T10:57:48;4.60;71.40
12726;DHT22;6427;49.754;6.106;2023-02-28T11:00:24;5.00;69.20
12726;DHT22;6427;49.754;6.106;2023-02-28T11:02:47;5.00;69.20
12726;DHT22;6427;49.754;6.106;2023-02-28T11:05:34;4.90;68.30
12726;DHT22;6427;49.754;6.106;2023-02-28T11:10:38;4.60;68.80
12726;DHT22;6427;49.754;6.106;2023-02-28T11:13:05;4.40;69.30
12726;DHT22;6427;49.754;6.106;2023-02-28T11:15:33;4.40;69.40
12726;DHT22;6427;49.754;6.106;2023-02-28T11:18:17;4.30;69.90
12726;DHT22;6427;49.754;6.106;2023-02-28T11:20:29;4.20;70.20
12726;DHT22;6427;49.754;6.106;2023-02-28T11:22:56;4.20;71.10
12726;DHT22;6427;49.754;6.106;2023-02-28T11:25:28;4.20;70.60
12726;DHT22;6427;49.754;6.106;2023-02-28T11:27:56;4.20;70.60
12726;DHT22;6427;49.754;6.106;2023-02-28T11:30:32;4.20;71.40
12726;DHT22;6427;49.754;6.106;2023-02-28T11:32:58;4.40;71.60
12726;DHT22;6427;49.754;6.106;2023-02-28T11:35:38;4.50;71.30
12726;DHT22;6427;49.754;6.106;2023-02-28T11:38:07;4.60;71.30
12726;DHT22;6427;49.754;6.106;2023-02-28T11:40:39;4.60;71.00
12726;DHT22;6427;49.754;6.106;2023-02-28T11:45:43;4.60;70.60
12726;DHT22;6427;49.754;6.106;2023-02-28T11:48:22;4.60;70.90
12726;DHT22;6427;49.754;6.106;2023-02-28T11:56:57;4.60;69.40
12726;DHT22;6427;49.754;6.106;2023-02-28T12:05:23;4.30;71.10
12726;DHT22;6427;49.754;6.106;2023-02-28T12:07:53;4.30;71.20
12726;DHT22;6427;49.754;6.106;2023-02-28T12:10:29;4.30;71.90
12726;DHT22;6427;49.754;6.106;2023-02-28T12:15:54;4.70;71.30
12726;DHT22;6427;49.754;6.106;2023-02-28T12:18:34;4.70;70.60
12726;DHT22;6427;49.754;6.106;2023-02-28T12:21:15;4.70;70.50
12726;DHT22;6427;49.754;6.106;2023-02-28T12:23:44;4.60;70.00
12726;DHT22;6427;49.754;6.106;2023-02-28T12:29:04;4.40;70.70
12726;DHT22;6427;49.754;6.106;2023-02-28T12:31:34;4.60;71.50
12726;DHT22;6427;49.754;6.106;2023-02-28T12:33:57;4.70;70.90
12726;DHT22;6427;49.754;6.106;2023-02-28T12:36:23;4.70;70.90
12726;DHT22;6427;49.754;6.106;2023-02-28T12:39:04;4.70;70.50
12726;DHT22;6427;49.754;6.106;2023-02-28T12:44:30;4.90;69.30
12726;DHT22;6427;49.754;6.106;2023-02-28T12:46:41;4.90;69.80
12726;DHT22;6427;49.754;6.106;2023-02-28T12:49:25;4.90;69.80
12726;DHT22;6427;49.754;6.106;2023-02-28T12:51:47;4.80;69.70
12726;DHT22;6427;49.754;6.106;2023-02-28T12:54:23;4.80;69.70
12726;DHT22;6427;49.754;6.106;2023-02-28T13:02:42;4.80;69.80
12726;DHT22;6427;49.754;6.106;2023-02-28T13:07:55;5.00;69.80
12726;DHT22;6427;49.754;6.106;2023-02-28T13:10:17;5.30;68.90
12726;DHT22;6427;49.754;6.106;2023-02-28T13:12:51;5.20;68.30
12726;DHT22;6427;49.754;6.106;2023-02-28T13:15:27;5.10;68.30
12726;DHT22;6427;49.754;6.106;2023-02-28T13:17:55;5.10;69.00
12726;DHT22;6427;49.754;6.106;2023-02-28T13:20:24;5.20;69.40
12726;DHT22;6427;49.754;6.106;2023-02-28T13:22:50;5.20;68.10
12726;DHT22;6427;49.754;6.106;2023-02-28T13:27:50;5.50;67.50
12726;DHT22;6427;49.754;6.106;2023-02-28T13:38:42;6.20;65.30
12726;DHT22;6427;49.754;6.106;2023-02-28T13:57:56;5.90;66.20
12726;DHT22;6427;49.754;6.106;2023-02-28T14:00:46;5.90;66.10
12726;DHT22;6427;49.754;6.106;2023-02-28T14:05:41;5.70;65.10
12726;DHT22;6427;49.754;6.106;2023-02-28T14:08:20;5.80;65.20
12726;DHT22;6427;49.754;6.106;2023-02-28T14:10:44;5.80;64.40
12726;DHT22;6427;49.754;6.106;2023-02-28T14:15:56;5.70;63.30
12726;DHT22;6427;49.754;6.106;2023-02-28T14:18:31;5.60;63.00
12726;DHT22;6427;49.754;6.106;2023-02-28T14:23:55;5.50;64.00
12726;DHT22;6427;49.754;6.106;2023-02-28T14:29:15;5.50;65.10
12726;DHT22;6427;49.754;6.106;2023-02-28T14:31:39;5.50;65.10
12726;DHT22;6427;49.754;6.106;2023-02-28T14:37:03;5.80;64.10
12726;DHT22;6427;49.754;6.106;2023-02-28T14:39:31;6.00;63.00
12726;DHT22;6427;49.754;6.106;2023-02-28T14:41:59;6.00;62.90
12726;DHT22;6427;49.754;6.106;2023-02-28T14:44:27;6.10;61.80
12726;DHT22;6427;49.754;6.106;2023-02-28T14:46:58;6.10;61.30
12726;DHT22;6427;49.754;6.106;2023-02-28T14:49:26;6.10;61.00
12726;DHT22;6427;49.754;6.106;2023-02-28T14:54:39;6.10;59.70
12726;DHT22;6427;49.754;6.106;2023-02-28T14:57:03;6.10;60.00
12726;DHT22;6427;49.754;6.106;2023-02-28T14:59:32;6.10;60.80
12726;DHT22;6427;49.754;6.106;2023-02-28T15:02:20;6.10;60.60
12726;DHT22;6427;49.754;6.106;2023-02-28T15:04:56;6.10;60.80
12726;DHT22;6427;49.754;6.106;2023-02-28T15:07:24;6.10;61.50
12726;DHT22;6427;49.754;6.106;2023-02-28T15:10:06;6.10;60.80
12726;DHT22;6427;49.754;6.106;2023-02-28T15:12:19;6.10;60.40
12726;DHT22;6427;49.754;6.106;2023-02-28T15:14:46;6.00;60.30
12726;DHT22;6427;49.754;6.106;2023-02-28T15:17:16;5.90;60.60
12726;DHT22;6427;49.754;6.106;2023-02-28T15:19:41;5.90;61.20
12726;DHT22;6427;49.754;6.106;2023-02-28T15:22:14;5.80;60.80
12726;DHT22;6427;49.754;6.106;2023-02-28T15:24:44;5.80;60.80
12726;DHT22;6427;49.754;6.106;2023-02-28T15:27:13;5.90;61.10
12726;DHT22;6427;49.754;6.106;2023-02-28T15:29:44;5.90;61.50
12726;DHT22;6427;49.754;6.106;2023-02-28T15:32:20;5.90;60.70
12726;DHT22;6427;49.754;6.106;2023-02-28T15:34:39;5.90;60.60
12726;DHT22;6427;49.754;6.106;2023-02-28T15:40:17;6.40;60.20
12726;DHT22;6427;49.754;6.106;2023-02-28T15:42:57;6.30;59.70
12726;DHT22;6427;49.754;6.106;2023-02-28T15:45:27;6.20;59.60
12726;DHT22;6427;49.754;6.106;2023-02-28T15:47:54;6.30;60.00
12726;DHT22;6427;49.754;6.106;2023-02-28T15:50:21;6.50;59.90
12726;DHT22;6427;49.754;6.106;2023-02-28T15:52:49;6.50;59.10
12726;DHT22;6427;49.754;6.106;2023-02-28T15:55:20;6.50;59.00
12726;DHT22;6427;49.754;6.106;2023-02-28T15:57:51;6.50;59.20
12726;DHT22;6427;49.754;6.106;2023-02-28T16:00:24;6.50;59.20
12726;DHT22;6427;49.754;6.106;2023-02-28T16:02:50;6.50;58.90
12726;DHT22;6427;49.754;6.106;2023-02-28T16:05:23;6.50;59.00
12726;DHT22;6427;49.754;6.106;2023-02-28T16:07:50;6.50;59.10
12726;DHT22;6427;49.754;6.106;2023-02-28T16:10:17;6.50;59.10
12726;DHT22;6427;49.754;6.106;2023-02-28T16:12:45;6.60;58.90
12726;DHT22;6427;49.754;6.106;2023-02-28T16:15:20;6.50;58.40
12726;DHT22;6427;49.754;6.106;2023-02-28T16:17:46;6.50;58.80
12726;DHT22;6427;49.754;6.106;2023-02-28T16:20:15;6.50;58.60
12726;DHT22;6427;49.754;6.106;2023-02-28T16:22:42;6.50;58.70
12726;DHT22;6427;49.754;6.106;2023-02-28T16:25:13;6.60;58.70
12726;DHT22;6427;49.754;6.106;2023-02-28T16:27:40;6.50;58.40
12726;DHT22;6427;49.754;6.106;2023-02-28T16:30:09;6.40;58.50
12726;DHT22;6427;49.754;6.106;2023-02-28T16:32:36;6.40;58.60
12726;DHT22;6427;49.754;6.106;2023-02-28T16:35:05;6.20;58.70
12726;DHT22;6427;49.754;6.106;2023-02-28T16:37:31;6.10;58.60
12726;DHT22;6427;49.754;6.106;2023-02-28T16:39:59;5.80;58.90
12726;DHT22;6427;49.754;6.106;2023-02-28T16:42:27;5.60;59.10
12726;DHT22;6427;49.754;6.106;2023-02-28T16:44:55;5.60;59.10
12726;DHT22;6427;49.754;6.106;2023-02-28T16:47:23;5.50;59.30
12726;DHT22;6427;49.754;6.106;2023-02-28T16:49:51;5.30;59.50
12726;DHT22;6427;49.754;6.106;2023-02-28T16:52:18;5.20;59.80
12726;DHT22;6427;49.754;6.106;2023-02-28T16:54:47;5.10;60.50
12726;DHT22;6427;49.754;6.106;2023-02-28T16:57:19;5.10;60.50
12726;DHT22;6427;49.754;6.106;2023-02-28T16:59:44;5.00;60.60
12726;DHT22;6427;49.754;6.106;2023-02-28T17:02:13;4.90;60.90
12726;DHT22;6427;49.754;6.106;2023-02-28T17:04:40;4.80;61.20
12726;DHT22;6427;49.754;6.106;2023-02-28T17:07:14;4.80;61.40
12726;DHT22;6427;49.754;6.106;2023-02-28T17:09:41;4.70;61.70
12726;DHT22;6427;49.754;6.106;2023-02-28T17:12:09;4.70;61.50
12726;DHT22;6427;49.754;6.106;2023-02-28T17:14:37;4.70;61.40
12726;DHT22;6427;49.754;6.106;2023-02-28T17:17:05;4.60;61.70
12726;DHT22;6427;49.754;6.106;2023-02-28T17:19:32;4.50;62.10
12726;DHT22;6427;49.754;6.106;2023-02-28T17:21:59;4.40;62.90
12726;DHT22;6427;49.754;6.106;2023-02-28T17:24:27;4.40;63.10
12726;DHT22;6427;49.754;6.106;2023-02-28T17:26:55;4.30;64.00
12726;DHT22;6427;49.754;6.106;2023-02-28T17:29:23;4.20;63.90
12726;DHT22;6427;49.754;6.106;2023-02-28T17:31:51;4.10;64.20
12726;DHT22;6427;49.754;6.106;2023-02-28T17:34:20;4.10;64.20
12726;DHT22;6427;49.754;6.106;2023-02-28T17:36:49;3.90;64.60
12726;DHT22;6427;49.754;6.106;2023-02-28T17:39:17;3.90;64.50
12726;DHT22;6427;49.754;6.106;2023-02-28T17:41:44;3.90;64.80
12726;DHT22;6427;49.754;6.106;2023-02-28T17:44:11;3.80;65.00
12726;DHT22;6427;49.754;6.106;2023-02-28T17:46:39;3.70;65.20
12726;DHT22;6427;49.754;6.106;2023-02-28T17:49:08;3.70;65.40
12726;DHT22;6427;49.754;6.106;2023-02-28T17:51:34;3.60;65.50
12726;DHT22;6427;49.754;6.106;2023-02-28T17:54:02;3.70;65.80
12726;DHT22;6427;49.754;6.106;2023-02-28T17:56:29;3.70;65.50
12726;DHT22;6427;49.754;6.106;2023-02-28T17:58:57;3.60;65.70
12726;DHT22;6427;49.754;6.106;2023-02-28T18:01:24;3.50;65.90
12726;DHT22;6427;49.754;6.106;2023-02-28T18:03:52;3.40;66.20